Date,TemperatureHighF,TemperatureAvgF,TemperatureLowF,DewpointHighF,DewpointAvgF,DewpointLowF,HumidityHigh,HumidityAvg,HumidityLow,PressureMaxIn,PressureMinIn,WindSpeedMaxMPH,WindSpeedAvgMPH,GustSpeedMaxMPH,PrecipitationSumIn
2013-1-1,34.2,26.9,17.5,25.4,17.5,9.6,76,67,56,30.11,29.96,12,4,12,0.00
2013-1-2,36.4,24.8,14.0,17.0,11.9,3.7,70,58,42,30.20,30.09,12,2,12,0.00
2013-1-3,35.5,24.5,13.9,16.1,9.9,4.2,66,54,43,30.19,30.00,11,4,11,0.00
2013-1-4,40.7,30.3,23.6,18.7,12.4,8.2,56,47,39,30.02,29.94,13,3,13,0.00
2013-1-5,41.0,27.9,18.2,22.7,14.8,8.3,69,58,45,30.14,29.98,9,2,9,0.00
2013-1-6,41.0,30.7,18.2,19.7,15.4,8.6,72,54,41,29.98,29.74,12,2,12,0.00
2013-1-7,42.8,32.8,22.7,24.5,19.3,12.4,70,58,46,29.83,29.56,9,2,9,0.00
2013-1-8,47.3,39.1,30.1,24.6,19.5,14.4,57,46,28,29.90,29.57,20,4,20,0.00
2013-1-9,56.7,39.6,28.6,30.0,22.7,16.1,64,51,32,29.89,29.60,7,2,7,0.00
2013-1-10,47.0,32.6,20.5,29.5,21.7,12.5,78,65,44,29.61,29.42,10,2,10,0.00
2013-1-11,20.5,12.8,10.4,12.9,7.1,3.8,82,78,68,30.00,29.61,11,3,11,0.00
2013-1-12,19.1,11.5,3.4,9.5,4.5,-2.5,79,74,63,30.02,29.98,8,2,8,0.00
2013-1-13,21.1,12.6,5.6,10.1,4.3,-0.7,77,69,61,30.08,30.00,10,2,10,0.00
2013-1-14,20.2,14.1,8.5,8.1,4.3,0.7,72,65,55,30.04,29.89,12,5,12,0.00
2013-1-15,31.7,25.9,18.4,20.9,16.5,8.1,76,67,62,30.02,29.89,17,6,17,0.00
2013-1-16,42.5,32.3,25.7,24.7,19.4,15.8,67,59,48,30.19,29.97,13,4,13,0.00
2013-1-17,42.3,32.3,24.1,25.4,19.4,15.0,69,59,49,30.22,29.91,11,4,11,0.00
2013-1-18,51.7,38.7,32.8,26.6,21.3,18.2,56,50,34,29.92,29.78,13,3,13,0.00
2013-1-19,41.4,33.6,22.9,26.9,20.2,16.2,78,59,44,30.13,29.91,9,2,9,0.00
2013-1-20,32.6,24.1,16.7,21.3,16.0,9.8,75,71,61,30.32,29.99,10,2,10,0.00
2013-1-21,31.5,20.5,13.9,19.6,12.5,7.9,79,71,59,30.17,29.90,8,1,8,0.00
2013-1-22,46.4,30.9,12.6,26.2,18.3,7.0,81,61,44,29.97,29.90,8,2,8,0.00
2013-1-23,29.2,23.4,18.0,17.5,14.7,11.6,76,69,60,30.08,29.81,7,1,7,0.00
2013-1-24,53.8,34.8,19.1,31.3,21.0,12.7,77,59,37,29.99,29.75,13,2,13,0.00
2013-1-25,50.2,35.6,22.3,32.6,24.2,15.2,79,64,49,29.98,29.81,7,2,7,0.00
2013-1-26,54.9,41.7,31.7,32.5,27.0,22.7,69,57,39,29.81,29.59,7,1,7,0.00
2013-1-27,36.9,32.3,27.9,32.5,27.6,21.5,88,82,70,29.74,29.60,6,0,6,0.00
2013-1-28,37.8,30.4,20.7,29.9,22.7,13.5,87,74,44,29.74,29.63,10,2,10,0.00
2013-1-29,29.2,20.5,7.7,20.4,11.8,0.0,78,69,55,30.06,29.61,18,3,18,0.00
2013-1-30,33.7,23.7,9.2,26.2,17.4,2.9,86,77,65,29.94,29.70,12,2,12,0.00
2013-1-31,29.2,14.8,4.0,23.1,8.7,-0.9,85,77,68,30.10,29.89,7,1,7,0.00